METAR Data
IDs: Format: Raw Decoded Include TAF

Data at: 1956 UTC 25 Sep 2020

KRAC 251953Z AUTO 17015G22KT 10SM CLR 23/15 A2991 RMK AO2 SLP126 T02280150
KRAC 251853Z AUTO 15014KT 10SM CLR 23/14 A2994 RMK AO2 SLP134 T02330144
KRAC 251753Z AUTO 16012KT 10SM CLR 24/14 A2996 RMK AO2 SLP143 T02390144 10244 20150 58013
KRAC 251653Z AUTO 17007KT 10SM CLR 24/14 A2998 RMK AO2 SLP148 T02390144
KRAC 251553Z AUTO 21007KT 10SM CLR 23/14 A2999 RMK AO2 SLP152 T02330139
KRAC 251453Z AUTO 21008KT 10SM CLR 22/14 A3000 RMK AO2 SLP155 T02170144 51006
KRAC 251353Z AUTO 22004KT 10SM CLR 19/14 A2999 RMK AO2 SLP154 T01940139
KRAC 251253Z AUTO 23007KT 10SM CLR 17/13 A2999 RMK AO2 SLP154 T01670128
KRAC 251153Z AUTO 23006KT 10SM CLR 15/12 A2998 RMK AO2 SLP151 T01500122 10178 20139 51009
KRAC 251053Z AUTO 23005KT 10SM CLR 16/12 A2998 RMK AO2 SLP151 T01560122
KRAC 250953Z AUTO 22006KT 10SM CLR 16/13 A2997 RMK AO2 SLP145 T01610128
KRAC 250853Z AUTO 22004KT 10SM CLR 16/13 A2995 RMK AO2 SLP140 T01560128 53004
KRAC 250753Z AUTO 22005KT 10SM CLR 17/13 A2994 RMK AO2 SLP137 T01670133
KRAC 250653Z AUTO 23006KT 10SM CLR 17/14 A2994 RMK AO2 SLP136 T01720139
KRAC 250553Z AUTO 22005KT 10SM CLR 16/14 A2994 RMK AO2 SLP135 T01610144 10206 20156 402610144 50002
KRAC 250453Z AUTO 00000KT 10SM CLR 18/15 A2995 RMK AO2 SLP137 T01780150
KRAC 250353Z AUTO 18004KT 10SM CLR 18/15 A2994 RMK AO2 SLP136 T01780150
KRAC 250253Z AUTO 18008KT 10SM CLR 20/16 A2994 RMK AO2 SLP133 T02000156 53002
KRAC 250153Z AUTO 17008KT 10SM CLR 20/16 A2993 RMK AO2 SLP133 T02000161
KRAC 250053Z AUTO 17008KT 10SM FEW120 20/16 A2993 RMK AO2 SLP133 T02000156
KRAC 242353Z AUTO 18006KT 10SM FEW050 SCT060 21/16 A2993 RMK AO2 SLP133 T02060161 10261 20206 53013
KRAC 242253Z AUTO 17008KT 10SM FEW050 FEW060 21/16 A2991 RMK AO2 SLP127 T02110161
KRAC 242153Z AUTO 17008KT 10SM SCT049 22/17 A2990 RMK AO2 SLP122 T02170167
KRAC 242053Z AUTO 15011KT 10SM CLR 24/17 A2989 RMK AO2 SLP119 T02390167 58012
KRAC 241953Z AUTO 23011G18KT 10SM FEW045 SCT055 SCT070 25/15 A2991 RMK AO2 SLP125 T02500150
KRAC 241853Z AUTO 23012G18KT 10SM BKN047 BKN060 26/15 A2992 RMK AO2 SLP128 T02560150
KRAC 241753Z AUTO 20008G19KT 10SM SCT041 25/16 A2993 RMK AO2 SLP131 T02500156 10250 20150 58013
KRAC 241653Z AUTO 22011G17KT 10SM FEW035 24/16 A2995 RMK AO2 SLP139 T02440156
KRAC 241553Z AUTO 22007KT 10SM CLR 23/16 A2996 RMK AO2 SLP143 T02330161
KRAC 241453Z AUTO 20006KT 10SM CLR 21/16 A2997 RMK AO2 SLP146 T02060161 52003
KRAC 241353Z AUTO 26005KT 10SM CLR 18/14 A2996 RMK AO2 SLP144 T01830144
KRAC 241253Z AUTO 26005KT 10SM CLR 16/13 A2996 RMK AO2 SLP144 T01560128
KRAC 241153Z AUTO 25006KT 10SM CLR 15/12 A2996 RMK AO2 SLP142 T01500122 10172 20144 53002
KRAC 241053Z AUTO 25005KT 10SM CLR 15/12 A2995 RMK AO2 SLP140 T01500122
KRAC 240953Z AUTO 25004KT 10SM CLR 16/12 A2995 RMK AO2 SLP139 T01560122
KRAC 240853Z AUTO 25005KT 10SM CLR 16/12 A2995 RMK AO2 SLP138 T01610122 55007